Hazen, Pennsylvania
Current Conditions -  °F | °C
As of 11:35 PM on Tuesday 21 Oct 2014 (Local Time) from KDUJ Reporting Station
Overcast Overcast  
Wind Chill: 43°   Ceiling: 1400
Heat Index: 47°   Visibility: 10mi
Dew Point: 46°   Wind: 8mph
Humidity: 97%   Direction: 360°N
Pressure: 29.99"   Gusts: NA
Location:  41.1661°N, 79.0421°W
Report Text: KDUJ 220335Z AUTO 36007KT 10SM BKN014 BKN042 OVC060 08/08 A2999 RMK AO2 RAB0255E12 P0001 T00830078
Loading
Personal Weather Stations






























Interactive Weather Map
Tropical Storm Tracking
New forecast layout! Learn more

10-Day Weather Forecast

Advertisements
Track Severe Weather on mobile